sensor_id;sensor_type;location;lat;lon;timestamp;P1;durP1;ratioP1;P2;durP2;ratioP2
75772;SDS011;64381;0.000;0.000;2023-04-01T00:00:50;7.20;;;3.30;;
75772;SDS011;64381;0.000;0.000;2023-04-01T00:03:16;7.18;;;3.58;;
75772;SDS011;64381;0.000;0.000;2023-04-01T00:05:42;7.27;;;3.10;;
75772;SDS011;64381;0.000;0.000;2023-04-01T00:08:07;6.43;;;3.23;;
75772;SDS011;64381;0.000;0.000;2023-04-01T00:10:32;6.07;;;3.07;;
75772;SDS011;64381;0.000;0.000;2023-04-01T00:12:58;6.00;;;2.87;;
75772;SDS011;64381;0.000;0.000;2023-04-01T00:15:23;8.07;;;3.60;;
75772;SDS011;64381;0.000;0.000;2023-04-01T00:17:48;6.00;;;2.97;;
75772;SDS011;64381;0.000;0.000;2023-04-01T00:20:13;6.90;;;3.20;;
75772;SDS011;64381;0.000;0.000;2023-04-01T00:22:39;6.67;;;3.00;;
75772;SDS011;64381;0.000;0.000;2023-04-01T00:25:04;6.40;;;3.10;;
75772;SDS011;64381;0.000;0.000;2023-04-01T00:27:30;6.30;;;2.87;;
75772;SDS011;64381;0.000;0.000;2023-04-01T00:29:55;5.97;;;2.93;;
75772;SDS011;64381;0.000;0.000;2023-04-01T00:32:20;6.77;;;3.00;;
75772;SDS011;64381;0.000;0.000;2023-04-01T00:34:45;6.90;;;2.97;;
75772;SDS011;64381;0.000;0.000;2023-04-01T00:37:15;5.78;;;3.22;;
75772;SDS011;64381;0.000;0.000;2023-04-01T00:39:40;6.57;;;3.17;;
75772;SDS011;64381;0.000;0.000;2023-04-01T00:42:05;6.43;;;3.00;;
75772;SDS011;64381;0.000;0.000;2023-04-01T00:44:32;6.17;;;2.97;;
75772;SDS011;64381;0.000;0.000;2023-04-01T00:46:59;6.28;;;2.85;;
75772;SDS011;64381;0.000;0.000;2023-04-01T00:49:26;6.50;;;3.25;;
75772;SDS011;64381;0.000;0.000;2023-04-01T00:51:54;7.30;;;2.90;;
75772;SDS011;64381;0.000;0.000;2023-04-01T00:54:22;6.88;;;3.10;;
75772;SDS011;64381;0.000;0.000;2023-04-01T00:56:57;6.78;;;3.30;;
75772;SDS011;64381;0.000;0.000;2023-04-01T00:59:25;5.25;;;2.53;;
75772;SDS011;64381;0.000;0.000;2023-04-01T01:01:53;5.55;;;2.97;;
75772;SDS011;64381;0.000;0.000;2023-04-01T01:04:28;6.53;;;3.13;;
75772;SDS011;64381;0.000;0.000;2023-04-01T01:17:44;6.15;;;2.90;;
75772;SDS011;64381;0.000;0.000;2023-04-01T01:23:10;6.05;;;3.05;;
75772;SDS011;64381;0.000;0.000;2023-04-01T01:28:57;6.13;;;3.05;;
75772;SDS011;64381;0.000;0.000;2023-04-01T01:31:56;6.25;;;2.50;;
75772;SDS011;64381;0.000;0.000;2023-04-01T01:34:32;5.68;;;2.80;;
75772;SDS011;64381;0.000;0.000;2023-04-01T01:37:06;6.47;;;2.83;;
75772;SDS011;64381;0.000;0.000;2023-04-01T01:39:36;5.70;;;2.50;;
75772;SDS011;64381;0.000;0.000;2023-04-01T01:42:03;5.50;;;2.40;;
75772;SDS011;64381;0.000;0.000;2023-04-01T01:44:31;6.82;;;2.90;;
75772;SDS011;64381;0.000;0.000;2023-04-01T01:46:58;5.90;;;2.70;;
75772;SDS011;64381;0.000;0.000;2023-04-01T01:49:24;5.78;;;2.80;;
75772;SDS011;64381;0.000;0.000;2023-04-01T01:51:52;6.17;;;2.70;;
75772;SDS011;64381;0.000;0.000;2023-04-01T01:54:17;5.10;;;2.53;;
75772;SDS011;64381;0.000;0.000;2023-04-01T01:56:44;5.00;;;2.58;;
75772;SDS011;64381;0.000;0.000;2023-04-01T01:59:12;6.55;;;2.85;;
75772;SDS011;64381;0.000;0.000;2023-04-01T02:01:40;5.20;;;2.50;;
75772;SDS011;64381;0.000;0.000;2023-04-01T02:04:08;5.22;;;2.47;;
75772;SDS011;64381;0.000;0.000;2023-04-01T02:06:37;5.20;;;2.75;;
75772;SDS011;64381;0.000;0.000;2023-04-01T02:09:07;5.53;;;2.70;;
75772;SDS011;64381;0.000;0.000;2023-04-01T02:11:34;5.43;;;2.70;;
75772;SDS011;64381;0.000;0.000;2023-04-01T02:16:39;5.22;;;2.60;;
75772;SDS011;64381;0.000;0.000;2023-04-01T02:19:06;6.25;;;2.55;;
75772;SDS011;64381;0.000;0.000;2023-04-01T02:21:33;5.32;;;2.38;;
75772;SDS011;64381;0.000;0.000;2023-04-01T02:23:59;5.63;;;2.30;;
75772;SDS011;64381;0.000;0.000;2023-04-01T02:26:27;5.53;;;2.47;;
75772;SDS011;64381;0.000;0.000;2023-04-01T02:28:53;4.83;;;2.50;;
75772;SDS011;64381;0.000;0.000;2023-04-01T02:31:19;4.90;;;2.53;;
75772;SDS011;64381;0.000;0.000;2023-04-01T02:33:45;5.38;;;2.30;;
75772;SDS011;64381;0.000;0.000;2023-04-01T02:36:14;5.57;;;2.50;;
75772;SDS011;64381;0.000;0.000;2023-04-01T02:38:41;5.50;;;2.53;;
75772;SDS011;64381;0.000;0.000;2023-04-01T02:41:07;5.65;;;2.63;;
75772;SDS011;64381;0.000;0.000;2023-04-01T02:43:32;5.10;;;2.13;;
75772;SDS011;64381;0.000;0.000;2023-04-01T02:45:58;5.45;;;2.40;;
75772;SDS011;64381;0.000;0.000;2023-04-01T02:48:23;5.77;;;2.80;;
75772;SDS011;64381;0.000;0.000;2023-04-01T02:50:49;6.10;;;2.37;;
75772;SDS011;64381;0.000;0.000;2023-04-01T02:53:14;5.67;;;2.40;;
75772;SDS011;64381;0.000;0.000;2023-04-01T02:55:39;5.40;;;2.47;;
75772;SDS011;64381;0.000;0.000;2023-04-01T02:58:04;4.93;;;2.20;;
75772;SDS011;64381;0.000;0.000;2023-04-01T03:00:29;4.70;;;2.20;;
75772;SDS011;64381;0.000;0.000;2023-04-01T03:02:55;5.80;;;2.40;;
75772;SDS011;64381;0.000;0.000;2023-04-01T03:05:20;4.80;;;2.22;;
75772;SDS011;64381;0.000;0.000;2023-04-01T03:07:46;4.97;;;2.33;;
75772;SDS011;64381;0.000;0.000;2023-04-01T03:10:11;4.70;;;2.43;;
75772;SDS011;64381;0.000;0.000;2023-04-01T03:12:37;6.20;;;2.27;;
75772;SDS011;64381;0.000;0.000;2023-04-01T03:15:02;4.90;;;2.10;;
75772;SDS011;64381;0.000;0.000;2023-04-01T03:17:28;5.82;;;2.30;;
75772;SDS011;64381;0.000;0.000;2023-04-01T03:19:53;5.87;;;2.30;;
75772;SDS011;64381;0.000;0.000;2023-04-01T03:22:18;5.03;;;2.10;;
75772;SDS011;64381;0.000;0.000;2023-04-01T03:24:44;4.70;;;2.30;;
75772;SDS011;64381;0.000;0.000;2023-04-01T03:27:09;5.57;;;2.20;;
75772;SDS011;64381;0.000;0.000;2023-04-01T03:29:34;5.17;;;2.07;;
75772;SDS011;64381;0.000;0.000;2023-04-01T03:32:00;4.83;;;2.10;;
75772;SDS011;64381;0.000;0.000;2023-04-01T03:34:25;4.43;;;2.03;;
75772;SDS011;64381;0.000;0.000;2023-04-01T03:36:51;4.43;;;1.90;;
75772;SDS011;64381;0.000;0.000;2023-04-01T03:39:17;5.30;;;2.42;;
75772;SDS011;64381;0.000;0.000;2023-04-01T03:41:42;5.30;;;2.20;;
75772;SDS011;64381;0.000;0.000;2023-04-01T03:44:07;3.63;;;1.80;;
75772;SDS011;64381;0.000;0.000;2023-04-01T03:46:33;5.57;;;1.90;;
75772;SDS011;64381;0.000;0.000;2023-04-01T03:48:58;4.77;;;1.90;;
75772;SDS011;64381;0.000;0.000;2023-04-01T03:51:23;4.53;;;2.17;;
75772;SDS011;64381;0.000;0.000;2023-04-01T03:53:48;4.13;;;1.90;;
75772;SDS011;64381;0.000;0.000;2023-04-01T03:56:14;4.60;;;2.20;;
75772;SDS011;64381;0.000;0.000;2023-04-01T03:58:39;6.00;;;2.10;;
75772;SDS011;64381;0.000;0.000;2023-04-01T04:01:17;4.13;;;1.90;;
75772;SDS011;64381;0.000;0.000;2023-04-01T04:03:44;4.53;;;1.93;;
75772;SDS011;64381;0.000;0.000;2023-04-01T04:06:11;4.97;;;2.07;;
75772;SDS011;64381;0.000;0.000;2023-04-01T04:08:37;4.30;;;1.85;;
75772;SDS011;64381;0.000;0.000;2023-04-01T04:11:03;5.57;;;1.88;;
75772;SDS011;64381;0.000;0.000;2023-04-01T04:13:28;4.93;;;1.80;;
75772;SDS011;64381;0.000;0.000;2023-04-01T04:15:53;4.37;;;1.80;;
75772;SDS011;64381;0.000;0.000;2023-04-01T04:18:19;4.70;;;2.10;;
75772;SDS011;64381;0.000;0.000;2023-04-01T04:20:45;4.57;;;2.10;;
75772;SDS011;64381;0.000;0.000;2023-04-01T04:23:10;4.20;;;1.73;;
75772;SDS011;64381;0.000;0.000;2023-04-01T04:25:36;5.47;;;2.10;;
75772;SDS011;64381;0.000;0.000;2023-04-01T04:28:01;5.00;;;2.30;;
75772;SDS011;64381;0.000;0.000;2023-04-01T04:30:26;4.57;;;2.03;;
75772;SDS011;64381;0.000;0.000;2023-04-01T04:32:51;4.50;;;1.97;;
75772;SDS011;64381;0.000;0.000;2023-04-01T04:35:16;5.03;;;2.07;;
75772;SDS011;64381;0.000;0.000;2023-04-01T04:37:42;5.43;;;2.20;;
75772;SDS011;64381;0.000;0.000;2023-04-01T04:40:07;4.53;;;2.00;;
75772;SDS011;64381;0.000;0.000;2023-04-01T04:42:33;4.10;;;2.00;;
75772;SDS011;64381;0.000;0.000;2023-04-01T04:44:58;4.23;;;1.87;;
75772;SDS011;64381;0.000;0.000;2023-04-01T04:47:23;5.07;;;1.70;;
75772;SDS011;64381;0.000;0.000;2023-04-01T04:49:48;3.90;;;1.60;;
75772;SDS011;64381;0.000;0.000;2023-04-01T04:52:14;3.90;;;1.70;;
75772;SDS011;64381;0.000;0.000;2023-04-01T04:54:39;4.40;;;2.10;;
75772;SDS011;64381;0.000;0.000;2023-04-01T04:57:04;5.00;;;1.80;;
75772;SDS011;64381;0.000;0.000;2023-04-01T04:59:30;5.27;;;1.90;;
75772;SDS011;64381;0.000;0.000;2023-04-01T05:01:55;4.00;;;1.80;;
75772;SDS011;64381;0.000;0.000;2023-04-01T05:04:21;3.90;;;1.80;;
75772;SDS011;64381;0.000;0.000;2023-04-01T05:06:46;3.60;;;1.60;;
75772;SDS011;64381;0.000;0.000;2023-04-01T05:09:11;4.23;;;1.70;;
75772;SDS011;64381;0.000;0.000;2023-04-01T05:11:36;4.88;;;1.70;;
75772;SDS011;64381;0.000;0.000;2023-04-01T05:14:02;4.47;;;2.00;;
75772;SDS011;64381;0.000;0.000;2023-04-01T05:16:27;4.00;;;1.70;;
75772;SDS011;64381;0.000;0.000;2023-04-01T05:18:52;4.60;;;1.60;;
75772;SDS011;64381;0.000;0.000;2023-04-01T05:21:17;3.73;;;2.10;;
75772;SDS011;64381;0.000;0.000;2023-04-01T05:23:43;4.53;;;1.70;;
75772;SDS011;64381;0.000;0.000;2023-04-01T05:26:10;5.53;;;1.87;;
75772;SDS011;64381;0.000;0.000;2023-04-01T05:28:36;4.30;;;1.88;;
75772;SDS011;64381;0.000;0.000;2023-04-01T05:31:02;3.77;;;1.60;;
75772;SDS011;64381;0.000;0.000;2023-04-01T05:33:28;3.75;;;1.70;;
75772;SDS011;64381;0.000;0.000;2023-04-01T05:35:54;3.97;;;1.80;;
75772;SDS011;64381;0.000;0.000;2023-04-01T05:38:20;4.13;;;1.80;;
75772;SDS011;64381;0.000;0.000;2023-04-01T05:40:45;4.17;;;1.63;;
75772;SDS011;64381;0.000;0.000;2023-04-01T05:43:11;3.90;;;1.80;;
75772;SDS011;64381;0.000;0.000;2023-04-01T05:45:36;4.33;;;1.73;;
75772;SDS011;64381;0.000;0.000;2023-04-01T05:48:01;5.00;;;1.60;;
75772;SDS011;64381;0.000;0.000;2023-04-01T05:50:27;4.32;;;1.95;;
75772;SDS011;64381;0.000;0.000;2023-04-01T05:52:52;4.47;;;1.73;;
75772;SDS011;64381;0.000;0.000;2023-04-01T05:55:18;4.00;;;1.47;;
75772;SDS011;64381;0.000;0.000;2023-04-01T05:57:44;3.93;;;1.70;;
75772;SDS011;64381;0.000;0.000;2023-04-01T06:00:10;4.03;;;1.80;;
75772;SDS011;64381;0.000;0.000;2023-04-01T06:02:35;4.25;;;1.90;;
75772;SDS011;64381;0.000;0.000;2023-04-01T06:07:35;3.85;;;1.80;;
75772;SDS011;64381;0.000;0.000;2023-04-01T06:10:01;4.60;;;1.70;;
75772;SDS011;64381;0.000;0.000;2023-04-01T06:12:40;4.40;;;1.90;;
75772;SDS011;64381;0.000;0.000;2023-04-01T06:23:23;4.32;;;1.60;;
75772;SDS011;64381;0.000;0.000;2023-04-01T06:44:54;4.27;;;1.70;;
75772;SDS011;64381;0.000;0.000;2023-04-01T06:47:30;4.40;;;1.80;;
75772;SDS011;64381;0.000;0.000;2023-04-01T06:56:14;4.07;;;1.50;;
75772;SDS011;64381;0.000;0.000;2023-04-01T06:58:46;4.17;;;1.63;;
75772;SDS011;64381;0.000;0.000;2023-04-01T07:01:18;3.60;;;1.52;;
75772;SDS011;64381;0.000;0.000;2023-04-01T07:03:49;3.97;;;1.48;;
75772;SDS011;64381;0.000;0.000;2023-04-01T07:06:24;3.75;;;1.50;;
75772;SDS011;64381;0.000;0.000;2023-04-01T07:08:53;4.43;;;1.70;;
75772;SDS011;64381;0.000;0.000;2023-04-01T07:11:26;3.77;;;1.60;;
75772;SDS011;64381;0.000;0.000;2023-04-01T07:13:58;3.70;;;1.35;;
75772;SDS011;64381;0.000;0.000;2023-04-01T07:19:12;3.38;;;1.30;;
75772;SDS011;64381;0.000;0.000;2023-04-01T07:21:45;3.30;;;1.40;;
75772;SDS011;64381;0.000;0.000;2023-04-01T07:24:26;3.60;;;1.50;;
75772;SDS011;64381;0.000;0.000;2023-04-01T07:26:57;3.50;;;1.52;;
75772;SDS011;64381;0.000;0.000;2023-04-01T07:29:23;5.03;;;1.60;;
75772;SDS011;64381;0.000;0.000;2023-04-01T07:34:46;3.65;;;1.40;;
75772;SDS011;64381;0.000;0.000;2023-04-01T07:37:42;3.40;;;1.33;;
75772;SDS011;64381;0.000;0.000;2023-04-01T07:48:29;3.67;;;1.42;;
75772;SDS011;64381;0.000;0.000;2023-04-01T07:53:36;3.92;;;1.40;;
75772;SDS011;64381;0.000;0.000;2023-04-01T08:02:10;4.60;;;1.60;;
75772;SDS011;64381;0.000;0.000;2023-04-01T08:10:11;3.20;;;1.30;;
75772;SDS011;64381;0.000;0.000;2023-04-01T08:18:41;3.43;;;1.40;;
75772;SDS011;64381;0.000;0.000;2023-04-01T08:21:19;3.65;;;1.35;;
75772;SDS011;64381;0.000;0.000;2023-04-01T08:23:48;3.50;;;1.52;;
75772;SDS011;64381;0.000;0.000;2023-04-01T08:26:26;3.95;;;1.38;;
75772;SDS011;64381;0.000;0.000;2023-04-01T08:29:10;4.68;;;1.30;;
75772;SDS011;64381;0.000;0.000;2023-04-01T08:34:43;3.58;;;1.45;;
75772;SDS011;64381;0.000;0.000;2023-04-01T08:37:14;3.70;;;1.30;;
75772;SDS011;64381;0.000;0.000;2023-04-01T08:39:45;3.08;;;1.17;;
75772;SDS011;64381;0.000;0.000;2023-04-01T08:42:37;4.78;;;1.50;;
75772;SDS011;64381;0.000;0.000;2023-04-01T08:45:42;3.93;;;1.33;;
75772;SDS011;64381;0.000;0.000;2023-04-01T08:51:21;3.53;;;1.50;;
75772;SDS011;64381;0.000;0.000;2023-04-01T08:56:34;3.33;;;1.50;;
75772;SDS011;64381;0.000;0.000;2023-04-01T09:10:40;3.20;;;1.20;;
75772;SDS011;64381;0.000;0.000;2023-04-01T09:13:17;4.00;;;1.23;;
75772;SDS011;64381;0.000;0.000;2023-04-01T09:32:56;3.53;;;1.50;;
75772;SDS011;64381;0.000;0.000;2023-04-01T09:46:46;3.15;;;1.30;;
75772;SDS011;64381;0.000;0.000;2023-04-01T09:49:37;3.95;;;1.40;;
75772;SDS011;64381;0.000;0.000;2023-04-01T09:52:31;2.85;;;1.10;;
75772;SDS011;64381;0.000;0.000;2023-04-01T10:09:39;2.63;;;1.03;;
75772;SDS011;64381;0.000;0.000;2023-04-01T10:21:11;3.33;;;1.30;;
75772;SDS011;64381;0.000;0.000;2023-04-01T10:35:08;3.05;;;1.17;;
75772;SDS011;64381;0.000;0.000;2023-04-01T10:38:02;3.10;;;1.20;;
75772;SDS011;64381;0.000;0.000;2023-04-01T11:03:26;2.80;;;1.10;;
75772;SDS011;64381;0.000;0.000;2023-04-01T11:06:32;3.42;;;1.10;;
75772;SDS011;64381;0.000;0.000;2023-04-01T11:15:07;3.55;;;1.30;;
75772;SDS011;64381;0.000;0.000;2023-04-01T11:21:22;3.25;;;1.20;;
75772;SDS011;64381;0.000;0.000;2023-04-01T11:27:34;3.00;;;1.23;;
75772;SDS011;64381;0.000;0.000;2023-04-01T11:33:14;3.35;;;1.30;;
75772;SDS011;64381;0.000;0.000;2023-04-01T11:44:25;2.80;;;1.10;;
75772;SDS011;64381;0.000;0.000;2023-04-01T11:55:19;2.88;;;1.00;;
75772;SDS011;64381;0.000;0.000;2023-04-01T12:12:18;2.80;;;1.00;;
75772;SDS011;64381;0.000;0.000;2023-04-01T12:14:57;3.45;;;1.30;;
75772;SDS011;64381;0.000;0.000;2023-04-01T12:31:41;2.63;;;0.90;;
75772;SDS011;64381;0.000;0.000;2023-04-01T12:34:13;2.90;;;1.10;;
75772;SDS011;64381;0.000;0.000;2023-04-01T12:37:03;3.00;;;1.00;;
75772;SDS011;64381;0.000;0.000;2023-04-01T12:39:47;3.50;;;1.17;;
75772;SDS011;64381;0.000;0.000;2023-04-01T12:42:25;3.08;;;1.10;;
75772;SDS011;64381;0.000;0.000;2023-04-01T12:45:03;2.70;;;1.10;;
75772;SDS011;64381;0.000;0.000;2023-04-01T12:50:39;3.45;;;1.33;;
75772;SDS011;64381;0.000;0.000;2023-04-01T12:53:07;3.43;;;1.20;;
75772;SDS011;64381;0.000;0.000;2023-04-01T12:56:03;3.00;;;1.20;;
75772;SDS011;64381;0.000;0.000;2023-04-01T13:01:48;3.20;;;1.08;;
75772;SDS011;64381;0.000;0.000;2023-04-01T13:04:32;2.80;;;1.05;;
75772;SDS011;64381;0.000;0.000;2023-04-01T13:09:42;3.00;;;1.15;;
75772;SDS011;64381;0.000;0.000;2023-04-01T13:12:37;3.08;;;1.00;;
75772;SDS011;64381;0.000;0.000;2023-04-01T13:20:43;2.47;;;1.00;;
75772;SDS011;64381;0.000;0.000;2023-04-01T13:26:02;3.30;;;1.10;;
75772;SDS011;64381;0.000;0.000;2023-04-01T13:28:33;3.15;;;1.27;;
75772;SDS011;64381;0.000;0.000;2023-04-01T13:33:50;2.70;;;0.90;;
75772;SDS011;64381;0.000;0.000;2023-04-01T13:41:53;2.90;;;1.10;;
75772;SDS011;64381;0.000;0.000;2023-04-01T13:50:07;2.87;;;1.00;;
75772;SDS011;64381;0.000;0.000;2023-04-01T13:58:05;2.77;;;1.20;;
75772;SDS011;64381;0.000;0.000;2023-04-01T14:04:04;2.58;;;1.00;;
75772;SDS011;64381;0.000;0.000;2023-04-01T14:07:29;3.05;;;1.05;;
75772;SDS011;64381;0.000;0.000;2023-04-01T14:17:57;2.70;;;1.05;;
75772;SDS011;64381;0.000;0.000;2023-04-01T14:20:33;3.40;;;1.20;;
75772;SDS011;64381;0.000;0.000;2023-04-01T14:25:50;2.55;;;0.88;;
75772;SDS011;64381;0.000;0.000;2023-04-01T14:30:59;2.80;;;1.13;;
75772;SDS011;64381;0.000;0.000;2023-04-01T14:52:57;2.60;;;0.90;;
75772;SDS011;64381;0.000;0.000;2023-04-01T15:03:56;2.77;;;1.10;;
75772;SDS011;64381;0.000;0.000;2023-04-01T15:06:45;3.33;;;1.20;;
75772;SDS011;64381;0.000;0.000;2023-04-01T15:09:36;2.53;;;0.90;;
75772;SDS011;64381;0.000;0.000;2023-04-01T15:15:09;2.70;;;0.90;;
75772;SDS011;64381;0.000;0.000;2023-04-01T15:31:00;2.70;;;0.83;;
75772;SDS011;64381;0.000;0.000;2023-04-01T15:39:20;2.65;;;1.00;;
75772;SDS011;64381;0.000;0.000;2023-04-01T15:46:58;2.63;;;0.90;;
75772;SDS011;64381;0.000;0.000;2023-04-01T15:52:10;2.88;;;1.10;;
75772;SDS011;64381;0.000;0.000;2023-04-01T15:55:01;2.90;;;1.00;;
75772;SDS011;64381;0.000;0.000;2023-04-01T16:08:54;2.55;;;1.00;;
75772;SDS011;64381;0.000;0.000;2023-04-01T16:16:31;2.60;;;0.80;;
75772;SDS011;64381;0.000;0.000;2023-04-01T16:22:06;2.70;;;0.90;;
75772;SDS011;64381;0.000;0.000;2023-04-01T16:24:51;2.78;;;0.80;;
75772;SDS011;64381;0.000;0.000;2023-04-01T16:39:26;2.58;;;0.88;;
75772;SDS011;64381;0.000;0.000;2023-04-01T16:44:31;2.70;;;1.00;;
75772;SDS011;64381;0.000;0.000;2023-04-01T16:47:15;2.60;;;0.90;;
75772;SDS011;64381;0.000;0.000;2023-04-01T16:50:26;2.83;;;0.90;;
75772;SDS011;64381;0.000;0.000;2023-04-01T16:55:19;2.38;;;0.88;;
75772;SDS011;64381;0.000;0.000;2023-04-01T16:57:53;2.77;;;0.90;;
75772;SDS011;64381;0.000;0.000;2023-04-01T17:03:13;2.88;;;0.90;;
75772;SDS011;64381;0.000;0.000;2023-04-01T17:05:44;2.50;;;0.90;;
75772;SDS011;64381;0.000;0.000;2023-04-01T17:10:57;2.40;;;0.70;;
75772;SDS011;64381;0.000;0.000;2023-04-01T17:13:40;2.63;;;0.75;;
75772;SDS011;64381;0.000;0.000;2023-04-01T17:21:38;2.50;;;0.90;;
75772;SDS011;64381;0.000;0.000;2023-04-01T17:24:21;2.63;;;0.90;;
75772;SDS011;64381;0.000;0.000;2023-04-01T17:34:46;2.70;;;0.90;;
75772;SDS011;64381;0.000;0.000;2023-04-01T17:39:57;2.42;;;0.80;;
75772;SDS011;64381;0.000;0.000;2023-04-01T17:50:13;2.70;;;0.90;;
75772;SDS011;64381;0.000;0.000;2023-04-01T17:52:55;2.58;;;0.90;;
75772;SDS011;64381;0.000;0.000;2023-04-01T17:58:03;2.78;;;1.00;;
75772;SDS011;64381;0.000;0.000;2023-04-01T18:06:29;2.60;;;0.90;;
75772;SDS011;64381;0.000;0.000;2023-04-01T18:09:12;2.55;;;0.82;;
75772;SDS011;64381;0.000;0.000;2023-04-01T18:12:10;2.67;;;0.90;;
75772;SDS011;64381;0.000;0.000;2023-04-01T18:20:33;2.83;;;1.00;;
75772;SDS011;64381;0.000;0.000;2023-04-01T18:23:03;2.33;;;0.82;;
75772;SDS011;64381;0.000;0.000;2023-04-01T18:25:38;2.78;;;1.00;;
75772;SDS011;64381;0.000;0.000;2023-04-01T18:30:58;2.65;;;0.80;;
75772;SDS011;64381;0.000;0.000;2023-04-01T18:39:06;2.80;;;0.93;;
75772;SDS011;64381;0.000;0.000;2023-04-01T18:44:19;2.78;;;0.98;;
75772;SDS011;64381;0.000;0.000;2023-04-01T18:46:55;2.70;;;0.80;;
75772;SDS011;64381;0.000;0.000;2023-04-01T18:57:49;2.50;;;0.90;;
75772;SDS011;64381;0.000;0.000;2023-04-01T19:00:21;2.40;;;0.80;;
75772;SDS011;64381;0.000;0.000;2023-04-01T19:02:54;2.90;;;0.90;;
75772;SDS011;64381;0.000;0.000;2023-04-01T19:05:33;2.63;;;0.90;;
75772;SDS011;64381;0.000;0.000;2023-04-01T19:08:16;2.45;;;0.80;;
75772;SDS011;64381;0.000;0.000;2023-04-01T19:16:21;2.50;;;0.90;;
75772;SDS011;64381;0.000;0.000;2023-04-01T19:27:18;2.63;;;1.00;;
75772;SDS011;64381;0.000;0.000;2023-04-01T19:35:42;2.53;;;0.88;;
75772;SDS011;64381;0.000;0.000;2023-04-01T19:38:22;3.00;;;0.90;;
75772;SDS011;64381;0.000;0.000;2023-04-01T19:40:55;2.30;;;0.82;;
75772;SDS011;64381;0.000;0.000;2023-04-01T19:43:39;2.20;;;0.77;;
75772;SDS011;64381;0.000;0.000;2023-04-01T19:49:02;2.88;;;1.08;;
75772;SDS011;64381;0.000;0.000;2023-04-01T19:51:37;2.72;;;1.08;;
75772;SDS011;64381;0.000;0.000;2023-04-01T19:54:26;2.92;;;1.00;;
75772;SDS011;64381;0.000;0.000;2023-04-01T19:59:50;2.70;;;0.77;;
75772;SDS011;64381;0.000;0.000;2023-04-01T20:02:26;2.50;;;0.90;;
75772;SDS011;64381;0.000;0.000;2023-04-01T20:04:57;2.22;;;0.70;;
75772;SDS011;64381;0.000;0.000;2023-04-01T20:07:32;2.35;;;0.85;;
75772;SDS011;64381;0.000;0.000;2023-04-01T20:10:14;2.15;;;0.70;;
75772;SDS011;64381;0.000;0.000;2023-04-01T20:15:47;2.40;;;0.80;;
75772;SDS011;64381;0.000;0.000;2023-04-01T20:23:42;2.50;;;0.80;;
75772;SDS011;64381;0.000;0.000;2023-04-01T20:26:14;2.83;;;0.90;;
75772;SDS011;64381;0.000;0.000;2023-04-01T20:29:17;2.22;;;0.80;;
75772;SDS011;64381;0.000;0.000;2023-04-01T20:31:43;2.38;;;0.70;;
75772;SDS011;64381;0.000;0.000;2023-04-01T20:34:12;2.10;;;0.70;;
75772;SDS011;64381;0.000;0.000;2023-04-01T20:36:49;2.45;;;0.90;;
75772;SDS011;64381;0.000;0.000;2023-04-01T20:50:52;2.58;;;0.90;;
75772;SDS011;64381;0.000;0.000;2023-04-01T20:53:42;2.42;;;0.85;;
75772;SDS011;64381;0.000;0.000;2023-04-01T21:01:50;2.33;;;0.70;;
75772;SDS011;64381;0.000;0.000;2023-04-01T21:07:28;2.30;;;0.80;;
75772;SDS011;64381;0.000;0.000;2023-04-01T21:10:08;2.60;;;0.90;;
75772;SDS011;64381;0.000;0.000;2023-04-01T21:18:36;2.72;;;0.80;;
75772;SDS011;64381;0.000;0.000;2023-04-01T21:26:59;2.50;;;0.82;;
75772;SDS011;64381;0.000;0.000;2023-04-01T21:29:39;2.70;;;1.05;;
75772;SDS011;64381;0.000;0.000;2023-04-01T21:37:55;2.53;;;0.80;;
75772;SDS011;64381;0.000;0.000;2023-04-01T21:40:32;2.40;;;0.80;;
75772;SDS011;64381;0.000;0.000;2023-04-01T21:43:38;2.30;;;0.80;;
75772;SDS011;64381;0.000;0.000;2023-04-01T21:46:32;2.15;;;0.80;;
75772;SDS011;64381;0.000;0.000;2023-04-01T21:52:14;2.60;;;0.80;;
75772;SDS011;64381;0.000;0.000;2023-04-01T21:57:48;2.60;;;0.80;;
75772;SDS011;64381;0.000;0.000;2023-04-01T22:00:29;2.58;;;0.90;;
75772;SDS011;64381;0.000;0.000;2023-04-01T22:06:02;2.50;;;0.90;;
75772;SDS011;64381;0.000;0.000;2023-04-01T22:14:22;2.70;;;1.10;;
75772;SDS011;64381;0.000;0.000;2023-04-01T22:19:39;2.30;;;0.93;;
75772;SDS011;64381;0.000;0.000;2023-04-01T22:22:13;2.58;;;0.90;;
75772;SDS011;64381;0.000;0.000;2023-04-01T22:27:43;2.35;;;0.80;;
75772;SDS011;64381;0.000;0.000;2023-04-01T22:30:24;2.47;;;0.90;;
75772;SDS011;64381;0.000;0.000;2023-04-01T22:33:04;2.40;;;0.82;;
75772;SDS011;64381;0.000;0.000;2023-04-01T22:38:37;2.33;;;0.80;;
75772;SDS011;64381;0.000;0.000;2023-04-01T22:43:50;2.67;;;0.97;;
75772;SDS011;64381;0.000;0.000;2023-04-01T22:48:48;2.30;;;0.90;;
75772;SDS011;64381;0.000;0.000;2023-04-01T22:54:27;2.20;;;0.80;;
75772;SDS011;64381;0.000;0.000;2023-04-01T22:56:57;2.53;;;0.90;;
75772;SDS011;64381;0.000;0.000;2023-04-01T22:59:34;2.58;;;0.80;;
75772;SDS011;64381;0.000;0.000;2023-04-01T23:04:47;2.30;;;0.70;;
75772;SDS011;64381;0.000;0.000;2023-04-01T23:07:30;2.40;;;0.80;;
75772;SDS011;64381;0.000;0.000;2023-04-01T23:10:03;2.70;;;1.00;;
75772;SDS011;64381;0.000;0.000;2023-04-01T23:12:36;2.20;;;0.70;;
75772;SDS011;64381;0.000;0.000;2023-04-01T23:15:03;2.53;;;0.80;;
75772;SDS011;64381;0.000;0.000;2023-04-01T23:17:46;2.50;;;0.90;;
75772;SDS011;64381;0.000;0.000;2023-04-01T23:23:20;2.40;;;0.70;;
75772;SDS011;64381;0.000;0.000;2023-04-01T23:28:46;2.42;;;0.80;;
75772;SDS011;64381;0.000;0.000;2023-04-01T23:36:49;2.20;;;0.70;;
75772;SDS011;64381;0.000;0.000;2023-04-01T23:39:23;2.87;;;0.90;;
75772;SDS011;64381;0.000;0.000;2023-04-01T23:41:53;2.22;;;0.77;;
75772;SDS011;64381;0.000;0.000;2023-04-01T23:44:21;2.50;;;0.82;;
75772;SDS011;64381;0.000;0.000;2023-04-01T23:46:50;2.17;;;0.75;;
75772;SDS011;64381;0.000;0.000;2023-04-01T23:49:24;2.35;;;0.80;;
75772;SDS011;64381;0.000;0.000;2023-04-01T23:51:56;2.30;;;0.80;;
75772;SDS011;64381;0.000;0.000;2023-04-01T23:54:29;2.58;;;0.90;;
75772;SDS011;64381;0.000;0.000;2023-04-01T23:56:57;2.40;;;0.73;;
75772;SDS011;64381;0.000;0.000;2023-04-01T23:59:24;2.50;;;1.00;;
